sensor_id;sensor_type;location;lat;lon;timestamp;P1;durP1;ratioP1;P2;durP2;ratioP2
11283;SDS011;5698;47.332;11.180;2023-08-31T00:01:38;1.70;;;1.60;;
11283;SDS011;5698;47.332;11.180;2023-08-31T00:04:05;2.63;;;2.00;;
11283;SDS011;5698;47.332;11.180;2023-08-31T00:06:39;1.83;;;1.73;;
11283;SDS011;5698;47.332;11.180;2023-08-31T00:09:06;1.90;;;1.80;;
11283;SDS011;5698;47.332;11.180;2023-08-31T00:11:36;3.10;;;2.50;;
11283;SDS011;5698;47.332;11.180;2023-08-31T00:14:03;2.87;;;2.67;;
11283;SDS011;5698;47.332;11.180;2023-08-31T00:16:30;2.70;;;2.50;;
11283;SDS011;5698;47.332;11.180;2023-08-31T00:18:58;2.50;;;2.30;;
11283;SDS011;5698;47.332;11.180;2023-08-31T00:21:25;2.80;;;2.60;;
11283;SDS011;5698;47.332;11.180;2023-08-31T00:23:52;2.70;;;2.50;;
11283;SDS011;5698;47.332;11.180;2023-08-31T00:26:20;2.77;;;2.57;;
11283;SDS011;5698;47.332;11.180;2023-08-31T00:28:48;2.30;;;2.10;;
11283;SDS011;5698;47.332;11.180;2023-08-31T00:31:15;2.43;;;2.23;;
11283;SDS011;5698;47.332;11.180;2023-08-31T00:33:42;1.97;;;1.87;;
11283;SDS011;5698;47.332;11.180;2023-08-31T00:36:09;1.97;;;1.87;;
11283;SDS011;5698;47.332;11.180;2023-08-31T00:38:36;3.10;;;1.80;;
11283;SDS011;5698;47.332;11.180;2023-08-31T00:41:03;1.70;;;1.60;;
11283;SDS011;5698;47.332;11.180;2023-08-31T00:43:30;1.63;;;1.53;;
11283;SDS011;5698;47.332;11.180;2023-08-31T00:46:00;1.70;;;1.60;;
11283;SDS011;5698;47.332;11.180;2023-08-31T00:48:27;1.70;;;1.60;;
11283;SDS011;5698;47.332;11.180;2023-08-31T00:50:54;2.00;;;1.90;;
11283;SDS011;5698;47.332;11.180;2023-08-31T00:53:21;2.10;;;1.77;;
11283;SDS011;5698;47.332;11.180;2023-08-31T00:55:50;1.60;;;1.50;;
11283;SDS011;5698;47.332;11.180;2023-08-31T00:58:17;1.57;;;1.47;;
11283;SDS011;5698;47.332;11.180;2023-08-31T01:00:46;1.40;;;1.30;;
11283;SDS011;5698;47.332;11.180;2023-08-31T01:03:31;2.90;;;1.70;;
11283;SDS011;5698;47.332;11.180;2023-08-31T01:06:07;1.60;;;1.50;;
11283;SDS011;5698;47.332;11.180;2023-08-31T01:08:42;2.33;;;2.13;;
11283;SDS011;5698;47.332;11.180;2023-08-31T01:11:16;2.17;;;1.87;;
11283;SDS011;5698;47.332;11.180;2023-08-31T01:13:51;1.80;;;1.70;;
11283;SDS011;5698;47.332;11.180;2023-08-31T01:16:22;1.70;;;1.60;;
11283;SDS011;5698;47.332;11.180;2023-08-31T01:18:52;1.53;;;1.43;;
11283;SDS011;5698;47.332;11.180;2023-08-31T01:21:21;2.13;;;2.03;;
11283;SDS011;5698;47.332;11.180;2023-08-31T01:23:54;1.90;;;1.80;;
11283;SDS011;5698;47.332;11.180;2023-08-31T01:26:21;1.90;;;1.80;;
11283;SDS011;5698;47.332;11.180;2023-08-31T01:28:49;2.00;;;1.90;;
11283;SDS011;5698;47.332;11.180;2023-08-31T01:31:17;2.67;;;1.90;;
11283;SDS011;5698;47.332;11.180;2023-08-31T01:33:45;3.10;;;2.00;;
11283;SDS011;5698;47.332;11.180;2023-08-31T01:36:14;2.07;;;1.93;;
11283;SDS011;5698;47.332;11.180;2023-08-31T01:38:47;1.93;;;1.83;;
11283;SDS011;5698;47.332;11.180;2023-08-31T01:41:20;2.40;;;2.20;;
11283;SDS011;5698;47.332;11.180;2023-08-31T01:43:49;2.20;;;2.00;;
11283;SDS011;5698;47.332;11.180;2023-08-31T01:46:18;1.80;;;1.70;;
11283;SDS011;5698;47.332;11.180;2023-08-31T01:48:46;2.03;;;1.93;;
11283;SDS011;5698;47.332;11.180;2023-08-31T01:51:12;2.83;;;2.10;;
11283;SDS011;5698;47.332;11.180;2023-08-31T01:53:39;2.67;;;2.47;;
11283;SDS011;5698;47.332;11.180;2023-08-31T01:56:06;2.60;;;2.40;;
11283;SDS011;5698;47.332;11.180;2023-08-31T01:58:35;2.50;;;2.30;;
11283;SDS011;5698;47.332;11.180;2023-08-31T02:01:02;2.40;;;2.20;;
11283;SDS011;5698;47.332;11.180;2023-08-31T02:03:29;2.80;;;2.40;;
11283;SDS011;5698;47.332;11.180;2023-08-31T02:05:56;2.60;;;2.17;;
11283;SDS011;5698;47.332;11.180;2023-08-31T02:08:23;2.27;;;2.13;;
11283;SDS011;5698;47.332;11.180;2023-08-31T02:10:49;2.00;;;1.90;;
11283;SDS011;5698;47.332;11.180;2023-08-31T02:13:18;2.20;;;2.00;;
11283;SDS011;5698;47.332;11.180;2023-08-31T02:15:47;2.43;;;2.23;;
11283;SDS011;5698;47.332;11.180;2023-08-31T02:18:18;2.57;;;2.30;;
11283;SDS011;5698;47.332;11.180;2023-08-31T02:20:44;2.00;;;1.90;;
11283;SDS011;5698;47.332;11.180;2023-08-31T02:23:12;2.00;;;1.90;;
11283;SDS011;5698;47.332;11.180;2023-08-31T02:25:39;1.70;;;1.60;;
11283;SDS011;5698;47.332;11.180;2023-08-31T02:28:06;1.60;;;1.50;;
11283;SDS011;5698;47.332;11.180;2023-08-31T02:30:33;5.13;;;2.00;;
11283;SDS011;5698;47.332;11.180;2023-08-31T02:33:01;2.30;;;2.10;;
11283;SDS011;5698;47.332;11.180;2023-08-31T02:35:28;3.77;;;2.37;;
11283;SDS011;5698;47.332;11.180;2023-08-31T02:37:55;2.13;;;1.93;;
11283;SDS011;5698;47.332;11.180;2023-08-31T02:40:22;2.27;;;2.07;;
11283;SDS011;5698;47.332;11.180;2023-08-31T02:42:50;1.77;;;1.67;;
11283;SDS011;5698;47.332;11.180;2023-08-31T02:45:17;2.10;;;1.87;;
11283;SDS011;5698;47.332;11.180;2023-08-31T02:47:44;1.80;;;1.70;;
11283;SDS011;5698;47.332;11.180;2023-08-31T02:50:13;2.83;;;2.37;;
11283;SDS011;5698;47.332;11.180;2023-08-31T02:52:40;2.30;;;2.10;;
11283;SDS011;5698;47.332;11.180;2023-08-31T02:55:07;2.10;;;1.90;;
11283;SDS011;5698;47.332;11.180;2023-08-31T02:57:35;2.80;;;2.20;;
11283;SDS011;5698;47.332;11.180;2023-08-31T03:00:02;2.53;;;1.80;;
11283;SDS011;5698;47.332;11.180;2023-08-31T03:02:34;1.87;;;1.73;;
11283;SDS011;5698;47.332;11.180;2023-08-31T03:05:01;2.27;;;1.70;;
11283;SDS011;5698;47.332;11.180;2023-08-31T03:07:30;1.90;;;1.80;;
11283;SDS011;5698;47.332;11.180;2023-08-31T03:09:57;2.07;;;1.77;;
11283;SDS011;5698;47.332;11.180;2023-08-31T03:12:24;1.80;;;1.70;;
11283;SDS011;5698;47.332;11.180;2023-08-31T03:14:51;2.53;;;2.33;;
11283;SDS011;5698;47.332;11.180;2023-08-31T03:17:18;1.97;;;1.87;;
11283;SDS011;5698;47.332;11.180;2023-08-31T03:19:45;2.00;;;1.90;;
11283;SDS011;5698;47.332;11.180;2023-08-31T03:22:12;2.23;;;2.07;;
11283;SDS011;5698;47.332;11.180;2023-08-31T03:24:40;2.63;;;2.00;;
11283;SDS011;5698;47.332;11.180;2023-08-31T03:27:07;1.80;;;1.70;;
11283;SDS011;5698;47.332;11.180;2023-08-31T03:29:34;2.40;;;2.20;;
11283;SDS011;5698;47.332;11.180;2023-08-31T03:32:01;2.23;;;2.13;;
11283;SDS011;5698;47.332;11.180;2023-08-31T03:34:28;1.90;;;1.67;;
11283;SDS011;5698;47.332;11.180;2023-08-31T03:36:56;1.97;;;1.87;;
11283;SDS011;5698;47.332;11.180;2023-08-31T03:39:23;1.97;;;1.87;;
11283;SDS011;5698;47.332;11.180;2023-08-31T03:41:52;1.90;;;1.80;;
11283;SDS011;5698;47.332;11.180;2023-08-31T03:44:20;2.13;;;2.03;;
11283;SDS011;5698;47.332;11.180;2023-08-31T03:46:47;2.20;;;2.10;;
11283;SDS011;5698;47.332;11.180;2023-08-31T03:49:14;2.10;;;2.00;;
11283;SDS011;5698;47.332;11.180;2023-08-31T03:51:41;1.80;;;1.70;;
11283;SDS011;5698;47.332;11.180;2023-08-31T03:54:08;2.83;;;1.80;;
11283;SDS011;5698;47.332;11.180;2023-08-31T03:56:35;1.90;;;1.80;;
11283;SDS011;5698;47.332;11.180;2023-08-31T03:59:05;2.00;;;1.90;;
11283;SDS011;5698;47.332;11.180;2023-08-31T04:01:32;2.10;;;1.90;;
11283;SDS011;5698;47.332;11.180;2023-08-31T04:03:59;1.90;;;1.80;;
11283;SDS011;5698;47.332;11.180;2023-08-31T04:06:26;2.13;;;1.90;;
11283;SDS011;5698;47.332;11.180;2023-08-31T04:08:53;2.00;;;1.80;;
11283;SDS011;5698;47.332;11.180;2023-08-31T04:11:20;2.17;;;2.00;;
11283;SDS011;5698;47.332;11.180;2023-08-31T04:13:48;1.67;;;1.57;;
11283;SDS011;5698;47.332;11.180;2023-08-31T04:16:16;1.80;;;1.70;;
11283;SDS011;5698;47.332;11.180;2023-08-31T04:18:43;1.63;;;1.53;;
11283;SDS011;5698;47.332;11.180;2023-08-31T04:21:12;2.30;;;2.10;;
11283;SDS011;5698;47.332;11.180;2023-08-31T04:23:39;1.83;;;1.60;;
11283;SDS011;5698;47.332;11.180;2023-08-31T04:26:10;2.53;;;1.87;;
11283;SDS011;5698;47.332;11.180;2023-08-31T04:28:37;1.80;;;1.70;;
11283;SDS011;5698;47.332;11.180;2023-08-31T04:31:05;1.87;;;1.77;;
11283;SDS011;5698;47.332;11.180;2023-08-31T04:33:34;2.37;;;2.17;;
11283;SDS011;5698;47.332;11.180;2023-08-31T04:36:01;2.07;;;1.93;;
11283;SDS011;5698;47.332;11.180;2023-08-31T04:38:29;2.03;;;1.83;;
11283;SDS011;5698;47.332;11.180;2023-08-31T04:40:57;2.80;;;2.50;;
11283;SDS011;5698;47.332;11.180;2023-08-31T04:43:25;2.40;;;2.10;;
11283;SDS011;5698;47.332;11.180;2023-08-31T04:45:52;2.20;;;2.10;;
11283;SDS011;5698;47.332;11.180;2023-08-31T04:48:19;3.80;;;1.93;;
11283;SDS011;5698;47.332;11.180;2023-08-31T04:50:48;2.63;;;1.90;;
11283;SDS011;5698;47.332;11.180;2023-08-31T04:53:15;2.03;;;1.90;;
11283;SDS011;5698;47.332;11.180;2023-08-31T04:55:42;1.90;;;1.80;;
11283;SDS011;5698;47.332;11.180;2023-08-31T04:58:09;1.97;;;1.73;;
11283;SDS011;5698;47.332;11.180;2023-08-31T05:00:36;2.10;;;2.00;;
11283;SDS011;5698;47.332;11.180;2023-08-31T05:03:04;2.13;;;2.03;;
11283;SDS011;5698;47.332;11.180;2023-08-31T05:05:31;1.97;;;1.87;;
11283;SDS011;5698;47.332;11.180;2023-08-31T05:07:59;2.10;;;1.90;;
11283;SDS011;5698;47.332;11.180;2023-08-31T05:10:26;1.80;;;1.70;;
11283;SDS011;5698;47.332;11.180;2023-08-31T05:12:53;2.00;;;1.80;;
11283;SDS011;5698;47.332;11.180;2023-08-31T05:15:20;1.93;;;1.83;;
11283;SDS011;5698;47.332;11.180;2023-08-31T05:17:48;2.00;;;1.90;;
11283;SDS011;5698;47.332;11.180;2023-08-31T05:20:15;1.60;;;1.50;;
11283;SDS011;5698;47.332;11.180;2023-08-31T05:22:42;2.50;;;2.30;;
11283;SDS011;5698;47.332;11.180;2023-08-31T05:25:10;2.60;;;2.40;;
11283;SDS011;5698;47.332;11.180;2023-08-31T05:27:37;2.50;;;2.30;;
11283;SDS011;5698;47.332;11.180;2023-08-31T05:30:05;2.80;;;2.13;;
11283;SDS011;5698;47.332;11.180;2023-08-31T05:32:33;3.10;;;2.33;;
11283;SDS011;5698;47.332;11.180;2023-08-31T05:35:00;2.50;;;2.30;;
11283;SDS011;5698;47.332;11.180;2023-08-31T05:37:31;2.67;;;2.47;;
11283;SDS011;5698;47.332;11.180;2023-08-31T05:40:00;1.97;;;1.87;;
11283;SDS011;5698;47.332;11.180;2023-08-31T05:42:30;3.17;;;2.30;;
11283;SDS011;5698;47.332;11.180;2023-08-31T05:44:57;2.17;;;1.90;;
11283;SDS011;5698;47.332;11.180;2023-08-31T05:47:24;1.77;;;1.67;;
11283;SDS011;5698;47.332;11.180;2023-08-31T05:49:51;1.73;;;1.63;;
11283;SDS011;5698;47.332;11.180;2023-08-31T05:52:18;2.40;;;2.20;;
11283;SDS011;5698;47.332;11.180;2023-08-31T05:54:45;2.43;;;2.30;;
11283;SDS011;5698;47.332;11.180;2023-08-31T05:57:12;3.70;;;2.70;;
11283;SDS011;5698;47.332;11.180;2023-08-31T05:59:40;2.37;;;2.17;;
11283;SDS011;5698;47.332;11.180;2023-08-31T06:02:07;2.40;;;2.20;;
11283;SDS011;5698;47.332;11.180;2023-08-31T06:04:34;2.40;;;2.20;;
11283;SDS011;5698;47.332;11.180;2023-08-31T06:07:01;2.50;;;2.30;;
11283;SDS011;5698;47.332;11.180;2023-08-31T06:09:28;2.80;;;2.47;;
11283;SDS011;5698;47.332;11.180;2023-08-31T06:11:55;2.63;;;2.23;;
11283;SDS011;5698;47.332;11.180;2023-08-31T06:14:22;3.20;;;2.27;;
11283;SDS011;5698;47.332;11.180;2023-08-31T06:16:50;2.20;;;2.00;;
11283;SDS011;5698;47.332;11.180;2023-08-31T06:19:18;2.50;;;2.30;;
11283;SDS011;5698;47.332;11.180;2023-08-31T06:21:45;4.03;;;2.80;;
11283;SDS011;5698;47.332;11.180;2023-08-31T06:24:13;2.80;;;2.60;;
11283;SDS011;5698;47.332;11.180;2023-08-31T06:26:40;2.30;;;2.10;;
11283;SDS011;5698;47.332;11.180;2023-08-31T06:29:07;2.50;;;2.30;;
11283;SDS011;5698;47.332;11.180;2023-08-31T06:31:35;1.80;;;1.70;;
11283;SDS011;5698;47.332;11.180;2023-08-31T06:34:04;2.30;;;2.10;;
11283;SDS011;5698;47.332;11.180;2023-08-31T06:36:31;2.57;;;1.90;;
11283;SDS011;5698;47.332;11.180;2023-08-31T06:38:58;1.80;;;1.70;;
11283;SDS011;5698;47.332;11.180;2023-08-31T06:41:25;2.43;;;2.23;;
11283;SDS011;5698;47.332;11.180;2023-08-31T06:43:52;2.03;;;1.83;;
11283;SDS011;5698;47.332;11.180;2023-08-31T06:46:19;2.03;;;1.90;;
11283;SDS011;5698;47.332;11.180;2023-08-31T06:48:46;2.27;;;1.70;;
11283;SDS011;5698;47.332;11.180;2023-08-31T06:51:15;1.60;;;1.50;;
11283;SDS011;5698;47.332;11.180;2023-08-31T06:53:43;1.73;;;1.63;;
11283;SDS011;5698;47.332;11.180;2023-08-31T06:56:10;2.00;;;1.90;;
11283;SDS011;5698;47.332;11.180;2023-08-31T06:58:37;2.53;;;1.97;;
11283;SDS011;5698;47.332;11.180;2023-08-31T07:01:05;1.93;;;1.83;;
11283;SDS011;5698;47.332;11.180;2023-08-31T07:03:32;1.97;;;1.80;;
11283;SDS011;5698;47.332;11.180;2023-08-31T07:05:59;5.03;;;2.17;;
11283;SDS011;5698;47.332;11.180;2023-08-31T07:08:29;2.10;;;1.90;;
11283;SDS011;5698;47.332;11.180;2023-08-31T07:10:56;2.13;;;2.03;;
11283;SDS011;5698;47.332;11.180;2023-08-31T07:13:23;2.10;;;1.83;;
11283;SDS011;5698;47.332;11.180;2023-08-31T07:15:50;1.97;;;1.87;;
11283;SDS011;5698;47.332;11.180;2023-08-31T07:18:17;2.17;;;1.77;;
11283;SDS011;5698;47.332;11.180;2023-08-31T07:20:45;1.83;;;1.70;;
11283;SDS011;5698;47.332;11.180;2023-08-31T07:23:12;1.73;;;1.63;;
11283;SDS011;5698;47.332;11.180;2023-08-31T07:25:40;1.50;;;1.40;;
11283;SDS011;5698;47.332;11.180;2023-08-31T07:28:08;1.20;;;1.10;;
11283;SDS011;5698;47.332;11.180;2023-08-31T07:30:35;1.40;;;1.30;;
11283;SDS011;5698;47.332;11.180;2023-08-31T07:33:03;1.50;;;1.20;;
11283;SDS011;5698;47.332;11.180;2023-08-31T07:35:30;1.43;;;1.17;;
11283;SDS011;5698;47.332;11.180;2023-08-31T07:37:57;1.33;;;1.23;;
11283;SDS011;5698;47.332;11.180;2023-08-31T07:40:24;1.50;;;1.40;;
11283;SDS011;5698;47.332;11.180;2023-08-31T07:42:53;1.83;;;1.60;;
11283;SDS011;5698;47.332;11.180;2023-08-31T07:45:20;1.57;;;1.47;;
11283;SDS011;5698;47.332;11.180;2023-08-31T07:47:47;2.43;;;1.60;;
11283;SDS011;5698;47.332;11.180;2023-08-31T07:50:14;1.40;;;1.30;;
11283;SDS011;5698;47.332;11.180;2023-08-31T07:52:41;1.60;;;1.50;;
11283;SDS011;5698;47.332;11.180;2023-08-31T07:55:08;10.47;;;2.27;;
11283;SDS011;5698;47.332;11.180;2023-08-31T07:57:35;2.33;;;1.30;;
11283;SDS011;5698;47.332;11.180;2023-08-31T08:00:04;1.23;;;1.13;;
11283;SDS011;5698;47.332;11.180;2023-08-31T08:02:32;1.40;;;1.30;;
11283;SDS011;5698;47.332;11.180;2023-08-31T08:04:59;1.50;;;1.40;;
11283;SDS011;5698;47.332;11.180;2023-08-31T08:07:26;2.00;;;1.60;;
11283;SDS011;5698;47.332;11.180;2023-08-31T08:09:53;1.47;;;1.37;;
11283;SDS011;5698;47.332;11.180;2023-08-31T08:12:20;1.30;;;1.20;;
11283;SDS011;5698;47.332;11.180;2023-08-31T08:14:47;1.90;;;1.80;;
11283;SDS011;5698;47.332;11.180;2023-08-31T08:17:16;1.90;;;1.30;;
11283;SDS011;5698;47.332;11.180;2023-08-31T08:19:43;1.30;;;1.20;;
11283;SDS011;5698;47.332;11.180;2023-08-31T08:22:10;1.30;;;1.20;;
11283;SDS011;5698;47.332;11.180;2023-08-31T08:24:37;1.37;;;1.27;;
11283;SDS011;5698;47.332;11.180;2023-08-31T08:27:04;1.23;;;1.13;;
11283;SDS011;5698;47.332;11.180;2023-08-31T08:29:31;1.10;;;1.00;;
11283;SDS011;5698;47.332;11.180;2023-08-31T08:31:58;1.47;;;1.20;;
11283;SDS011;5698;47.332;11.180;2023-08-31T08:34:27;1.47;;;1.17;;
11283;SDS011;5698;47.332;11.180;2023-08-31T08:36:54;1.63;;;1.10;;
11283;SDS011;5698;47.332;11.180;2023-08-31T08:39:21;1.03;;;1.03;;
11283;SDS011;5698;47.332;11.180;2023-08-31T08:41:48;1.33;;;1.23;;
11283;SDS011;5698;47.332;11.180;2023-08-31T08:44:15;1.20;;;1.10;;
11283;SDS011;5698;47.332;11.180;2023-08-31T08:46:46;2.23;;;1.20;;
11283;SDS011;5698;47.332;11.180;2023-08-31T08:49:14;2.17;;;1.10;;
11283;SDS011;5698;47.332;11.180;2023-08-31T08:51:43;1.33;;;1.23;;
11283;SDS011;5698;47.332;11.180;2023-08-31T08:54:12;1.30;;;1.20;;
11283;SDS011;5698;47.332;11.180;2023-08-31T08:56:39;2.03;;;1.40;;
11283;SDS011;5698;47.332;11.180;2023-08-31T08:59:06;1.73;;;1.40;;
11283;SDS011;5698;47.332;11.180;2023-08-31T09:01:35;1.63;;;1.33;;
11283;SDS011;5698;47.332;11.180;2023-08-31T09:04:02;1.40;;;1.30;;
11283;SDS011;5698;47.332;11.180;2023-08-31T09:06:30;1.50;;;1.40;;
11283;SDS011;5698;47.332;11.180;2023-08-31T09:08:58;1.40;;;1.30;;
11283;SDS011;5698;47.332;11.180;2023-08-31T09:11:25;4.53;;;2.70;;
11283;SDS011;5698;47.332;11.180;2023-08-31T09:13:52;2.10;;;1.50;;
11283;SDS011;5698;47.332;11.180;2023-08-31T09:16:25;1.60;;;1.50;;
11283;SDS011;5698;47.332;11.180;2023-08-31T09:18:55;1.57;;;1.47;;
11283;SDS011;5698;47.332;11.180;2023-08-31T09:21:22;1.20;;;1.20;;
11283;SDS011;5698;47.332;11.180;2023-08-31T09:24:02;1.20;;;1.10;;
11283;SDS011;5698;47.332;11.180;2023-08-31T09:26:34;2.90;;;1.30;;
11283;SDS011;5698;47.332;11.180;2023-08-31T09:29:04;2.13;;;1.13;;
11283;SDS011;5698;47.332;11.180;2023-08-31T09:31:31;1.90;;;1.30;;
11283;SDS011;5698;47.332;11.180;2023-08-31T09:33:58;1.50;;;1.30;;
11283;SDS011;5698;47.332;11.180;2023-08-31T09:36:25;1.40;;;1.30;;
11283;SDS011;5698;47.332;11.180;2023-08-31T09:38:56;1.57;;;1.40;;
11283;SDS011;5698;47.332;11.180;2023-08-31T09:41:25;2.10;;;1.10;;
11283;SDS011;5698;47.332;11.180;2023-08-31T09:43:52;2.63;;;1.43;;
11283;SDS011;5698;47.332;11.180;2023-08-31T09:46:19;1.43;;;1.33;;
11283;SDS011;5698;47.332;11.180;2023-08-31T09:48:47;1.33;;;1.23;;
11283;SDS011;5698;47.332;11.180;2023-08-31T09:51:15;2.70;;;1.50;;
11283;SDS011;5698;47.332;11.180;2023-08-31T09:53:45;1.57;;;1.40;;
11283;SDS011;5698;47.332;11.180;2023-08-31T09:56:18;2.57;;;1.40;;
11283;SDS011;5698;47.332;11.180;2023-08-31T09:58:51;3.10;;;1.47;;
11283;SDS011;5698;47.332;11.180;2023-08-31T10:01:18;1.90;;;1.70;;
11283;SDS011;5698;47.332;11.180;2023-08-31T10:03:45;2.37;;;1.80;;
11283;SDS011;5698;47.332;11.180;2023-08-31T10:06:12;1.50;;;1.40;;
11283;SDS011;5698;47.332;11.180;2023-08-31T10:08:40;1.50;;;1.40;;
11283;SDS011;5698;47.332;11.180;2023-08-31T10:11:08;1.40;;;1.30;;
11283;SDS011;5698;47.332;11.180;2023-08-31T10:13:38;1.70;;;1.60;;
11283;SDS011;5698;47.332;11.180;2023-08-31T10:16:09;1.80;;;1.70;;
11283;SDS011;5698;47.332;11.180;2023-08-31T10:18:37;3.43;;;1.57;;
11283;SDS011;5698;47.332;11.180;2023-08-31T10:21:05;1.87;;;1.50;;
11283;SDS011;5698;47.332;11.180;2023-08-31T10:23:32;1.90;;;1.80;;
11283;SDS011;5698;47.332;11.180;2023-08-31T10:26:01;1.80;;;1.70;;
11283;SDS011;5698;47.332;11.180;2023-08-31T10:28:29;2.10;;;1.90;;
11283;SDS011;5698;47.332;11.180;2023-08-31T10:31:06;1.67;;;1.40;;
11283;SDS011;5698;47.332;11.180;2023-08-31T10:33:38;1.83;;;1.73;;
11283;SDS011;5698;47.332;11.180;2023-08-31T10:36:09;2.33;;;1.70;;
11283;SDS011;5698;47.332;11.180;2023-08-31T10:38:38;2.33;;;1.77;;
11283;SDS011;5698;47.332;11.180;2023-08-31T10:41:18;1.80;;;1.67;;
11283;SDS011;5698;47.332;11.180;2023-08-31T10:43:46;1.83;;;1.60;;
11283;SDS011;5698;47.332;11.180;2023-08-31T10:46:19;1.93;;;1.73;;
11283;SDS011;5698;47.332;11.180;2023-08-31T10:48:53;1.70;;;1.60;;
11283;SDS011;5698;47.332;11.180;2023-08-31T10:51:22;1.87;;;1.77;;
11283;SDS011;5698;47.332;11.180;2023-08-31T10:53:50;2.63;;;2.00;;
11283;SDS011;5698;47.332;11.180;2023-08-31T10:56:17;2.67;;;2.10;;
11283;SDS011;5698;47.332;11.180;2023-08-31T10:58:55;1.90;;;1.70;;
11283;SDS011;5698;47.332;11.180;2023-08-31T11:04:22;2.47;;;2.27;;
11283;SDS011;5698;47.332;11.180;2023-08-31T11:06:50;2.03;;;1.93;;
11283;SDS011;5698;47.332;11.180;2023-08-31T11:09:39;2.10;;;1.90;;
11283;SDS011;5698;47.332;11.180;2023-08-31T11:12:07;1.83;;;1.70;;
11283;SDS011;5698;47.332;11.180;2023-08-31T11:14:34;1.83;;;1.73;;
11283;SDS011;5698;47.332;11.180;2023-08-31T11:17:01;2.20;;;2.00;;
11283;SDS011;5698;47.332;11.180;2023-08-31T11:19:31;2.07;;;1.87;;
11283;SDS011;5698;47.332;11.180;2023-08-31T11:21:59;1.90;;;1.67;;
11283;SDS011;5698;47.332;11.180;2023-08-31T11:24:27;3.67;;;2.10;;
11283;SDS011;5698;47.332;11.180;2023-08-31T11:26:54;2.07;;;1.60;;
11283;SDS011;5698;47.332;11.180;2023-08-31T11:29:21;3.03;;;1.80;;
11283;SDS011;5698;47.332;11.180;2023-08-31T11:31:48;2.30;;;2.10;;
11283;SDS011;5698;47.332;11.180;2023-08-31T11:34:16;1.90;;;1.70;;
11283;SDS011;5698;47.332;11.180;2023-08-31T11:36:45;1.67;;;1.57;;
11283;SDS011;5698;47.332;11.180;2023-08-31T11:39:13;3.80;;;1.80;;
11283;SDS011;5698;47.332;11.180;2023-08-31T11:41:40;2.70;;;1.90;;
11283;SDS011;5698;47.332;11.180;2023-08-31T11:44:09;1.83;;;1.53;;
11283;SDS011;5698;47.332;11.180;2023-08-31T11:46:39;1.60;;;1.50;;
11283;SDS011;5698;47.332;11.180;2023-08-31T11:49:08;2.60;;;1.67;;
11283;SDS011;5698;47.332;11.180;2023-08-31T11:51:35;1.43;;;1.33;;
11283;SDS011;5698;47.332;11.180;2023-08-31T11:54:07;2.23;;;1.63;;
11283;SDS011;5698;47.332;11.180;2023-08-31T11:56:40;1.40;;;1.30;;
11283;SDS011;5698;47.332;11.180;2023-08-31T11:59:08;1.90;;;1.67;;
11283;SDS011;5698;47.332;11.180;2023-08-31T12:01:40;2.20;;;1.67;;
11283;SDS011;5698;47.332;11.180;2023-08-31T12:04:11;3.20;;;1.70;;
11283;SDS011;5698;47.332;11.180;2023-08-31T12:06:39;2.23;;;1.70;;
11283;SDS011;5698;47.332;11.180;2023-08-31T12:09:08;1.93;;;1.73;;
11283;SDS011;5698;47.332;11.180;2023-08-31T12:11:35;1.70;;;1.60;;
11283;SDS011;5698;47.332;11.180;2023-08-31T12:14:03;1.47;;;1.23;;
11283;SDS011;5698;47.332;11.180;2023-08-31T12:16:44;1.70;;;1.60;;
11283;SDS011;5698;47.332;11.180;2023-08-31T12:19:11;3.03;;;1.77;;
11283;SDS011;5698;47.332;11.180;2023-08-31T12:21:38;4.70;;;1.47;;
11283;SDS011;5698;47.332;11.180;2023-08-31T12:24:05;1.90;;;1.80;;
11283;SDS011;5698;47.332;11.180;2023-08-31T12:26:34;1.70;;;1.60;;
11283;SDS011;5698;47.332;11.180;2023-08-31T12:29:01;3.03;;;2.00;;
11283;SDS011;5698;47.332;11.180;2023-08-31T12:31:29;2.13;;;1.80;;
11283;SDS011;5698;47.332;11.180;2023-08-31T12:33:57;1.70;;;1.40;;
11283;SDS011;5698;47.332;11.180;2023-08-31T12:36:24;1.47;;;1.37;;
11283;SDS011;5698;47.332;11.180;2023-08-31T12:38:51;2.00;;;1.40;;
11283;SDS011;5698;47.332;11.180;2023-08-31T12:41:18;1.97;;;1.77;;
11283;SDS011;5698;47.332;11.180;2023-08-31T12:43:47;2.63;;;1.70;;
11283;SDS011;5698;47.332;11.180;2023-08-31T12:46:14;1.50;;;1.23;;
11283;SDS011;5698;47.332;11.180;2023-08-31T12:48:42;1.60;;;1.50;;
11283;SDS011;5698;47.332;11.180;2023-08-31T12:51:09;1.90;;;1.80;;
11283;SDS011;5698;47.332;11.180;2023-08-31T12:53:37;2.83;;;1.80;;
11283;SDS011;5698;47.332;11.180;2023-08-31T12:56:05;1.70;;;1.50;;
11283;SDS011;5698;47.332;11.180;2023-08-31T12:58:32;1.53;;;1.43;;
11283;SDS011;5698;47.332;11.180;2023-08-31T13:01:00;3.83;;;1.70;;
11283;SDS011;5698;47.332;11.180;2023-08-31T13:03:28;2.07;;;1.70;;
11283;SDS011;5698;47.332;11.180;2023-08-31T13:05:55;2.03;;;1.90;;
11283;SDS011;5698;47.332;11.180;2023-08-31T13:08:22;2.50;;;2.17;;
11283;SDS011;5698;47.332;11.180;2023-08-31T13:10:52;2.60;;;1.97;;
11283;SDS011;5698;47.332;11.180;2023-08-31T13:13:20;2.10;;;1.83;;
11283;SDS011;5698;47.332;11.180;2023-08-31T13:15:48;1.80;;;1.70;;
11283;SDS011;5698;47.332;11.180;2023-08-31T13:18:17;3.00;;;2.03;;
11283;SDS011;5698;47.332;11.180;2023-08-31T13:20:50;2.20;;;2.00;;
11283;SDS011;5698;47.332;11.180;2023-08-31T13:23:17;1.90;;;1.70;;
11283;SDS011;5698;47.332;11.180;2023-08-31T13:25:44;2.13;;;2.00;;
11283;SDS011;5698;47.332;11.180;2023-08-31T13:28:12;2.07;;;1.87;;
11283;SDS011;5698;47.332;11.180;2023-08-31T13:30:39;1.83;;;1.63;;
11283;SDS011;5698;47.332;11.180;2023-08-31T13:33:07;1.80;;;1.70;;
11283;SDS011;5698;47.332;11.180;2023-08-31T13:35:36;1.83;;;1.73;;
11283;SDS011;5698;47.332;11.180;2023-08-31T13:38:03;2.40;;;2.20;;
11283;SDS011;5698;47.332;11.180;2023-08-31T13:40:33;2.33;;;2.13;;
11283;SDS011;5698;47.332;11.180;2023-08-31T13:43:01;1.67;;;1.57;;
11283;SDS011;5698;47.332;11.180;2023-08-31T13:45:29;2.27;;;1.90;;
11283;SDS011;5698;47.332;11.180;2023-08-31T13:47:56;2.13;;;1.70;;
11283;SDS011;5698;47.332;11.180;2023-08-31T13:50:25;1.93;;;1.73;;
11283;SDS011;5698;47.332;11.180;2023-08-31T13:52:53;1.50;;;1.40;;
11283;SDS011;5698;47.332;11.180;2023-08-31T13:55:20;1.70;;;1.60;;
11283;SDS011;5698;47.332;11.180;2023-08-31T13:57:48;2.20;;;1.90;;
11283;SDS011;5698;47.332;11.180;2023-08-31T14:00:16;1.93;;;1.73;;
11283;SDS011;5698;47.332;11.180;2023-08-31T14:02:43;4.73;;;1.83;;
11283;SDS011;5698;47.332;11.180;2023-08-31T14:05:10;2.13;;;1.70;;
11283;SDS011;5698;47.332;11.180;2023-08-31T14:07:37;2.17;;;1.97;;
11283;SDS011;5698;47.332;11.180;2023-08-31T14:10:06;1.90;;;1.77;;
11283;SDS011;5698;47.332;11.180;2023-08-31T14:12:34;2.23;;;2.00;;
11283;SDS011;5698;47.332;11.180;2023-08-31T14:15:01;2.10;;;1.90;;
11283;SDS011;5698;47.332;11.180;2023-08-31T14:17:29;1.87;;;1.73;;
11283;SDS011;5698;47.332;11.180;2023-08-31T14:19:58;1.90;;;1.80;;
11283;SDS011;5698;47.332;11.180;2023-08-31T14:22:27;2.00;;;1.90;;
11283;SDS011;5698;47.332;11.180;2023-08-31T14:24:54;1.70;;;1.60;;
11283;SDS011;5698;47.332;11.180;2023-08-31T14:27:24;1.87;;;1.77;;
11283;SDS011;5698;47.332;11.180;2023-08-31T14:29:52;1.90;;;1.70;;
11283;SDS011;5698;47.332;11.180;2023-08-31T14:32:19;1.70;;;1.60;;
11283;SDS011;5698;47.332;11.180;2023-08-31T14:34:47;1.87;;;1.77;;
11283;SDS011;5698;47.332;11.180;2023-08-31T14:37:14;1.90;;;1.80;;
11283;SDS011;5698;47.332;11.180;2023-08-31T14:39:41;2.27;;;1.50;;
11283;SDS011;5698;47.332;11.180;2023-08-31T14:42:08;2.90;;;1.60;;
11283;SDS011;5698;47.332;11.180;2023-08-31T14:44:36;2.13;;;1.93;;
11283;SDS011;5698;47.332;11.180;2023-08-31T14:47:03;1.60;;;1.50;;
11283;SDS011;5698;47.332;11.180;2023-08-31T14:49:30;2.33;;;2.00;;
11283;SDS011;5698;47.332;11.180;2023-08-31T14:51:57;1.80;;;1.70;;
11283;SDS011;5698;47.332;11.180;2023-08-31T14:54:30;2.23;;;1.80;;
11283;SDS011;5698;47.332;11.180;2023-08-31T14:56:57;2.00;;;1.80;;